sensor_id;sensor_type;location;lat;lon;timestamp;temperature;humidity
25352;DHT22;13304;48.464;8.712;2022-09-17T00:01:26;14.30;75.50
25352;DHT22;13304;48.464;8.712;2022-09-17T00:03:57;14.20;75.10
25352;DHT22;13304;48.464;8.712;2022-09-17T00:06:33;14.30;75.20
25352;DHT22;13304;48.464;8.712;2022-09-17T00:08:58;14.30;75.80
25352;DHT22;13304;48.464;8.712;2022-09-17T00:11:30;14.20;75.30
25352;DHT22;13304;48.464;8.712;2022-09-17T00:13:58;14.30;75.90
25352;DHT22;13304;48.464;8.712;2022-09-17T00:16:45;14.30;75.90
25352;DHT22;13304;48.464;8.712;2022-09-17T00:19:17;14.30;75.60
25352;DHT22;13304;48.464;8.712;2022-09-17T00:21:43;14.30;76.00
25352;DHT22;13304;48.464;8.712;2022-09-17T00:24:11;14.30;76.30
25352;DHT22;13304;48.464;8.712;2022-09-17T00:26:37;14.30;76.20
25352;DHT22;13304;48.464;8.712;2022-09-17T00:29:04;14.30;76.40
25352;DHT22;13304;48.464;8.712;2022-09-17T00:31:30;14.30;76.80
25352;DHT22;13304;48.464;8.712;2022-09-17T00:33:58;14.40;76.90
25352;DHT22;13304;48.464;8.712;2022-09-17T00:36:24;14.40;76.90
25352;DHT22;13304;48.464;8.712;2022-09-17T00:38:51;14.40;77.10
25352;DHT22;13304;48.464;8.712;2022-09-17T00:41:18;14.40;77.30
25352;DHT22;13304;48.464;8.712;2022-09-17T00:43:50;14.40;77.30
25352;DHT22;13304;48.464;8.712;2022-09-17T00:48:43;14.50;77.20
25352;DHT22;13304;48.464;8.712;2022-09-17T00:51:10;14.50;76.90
25352;DHT22;13304;48.464;8.712;2022-09-17T00:53:38;14.40;76.80
25352;DHT22;13304;48.464;8.712;2022-09-17T00:56:10;14.40;76.70
25352;DHT22;13304;48.464;8.712;2022-09-17T00:58:38;14.40;76.60
25352;DHT22;13304;48.464;8.712;2022-09-17T01:01:04;14.50;76.90
25352;DHT22;13304;48.464;8.712;2022-09-17T01:03:32;14.50;76.80
25352;DHT22;13304;48.464;8.712;2022-09-17T01:06:19;14.40;76.20
25352;DHT22;13304;48.464;8.712;2022-09-17T01:09:07;14.40;75.80
25352;DHT22;13304;48.464;8.712;2022-09-17T01:11:41;14.40;75.80
25352;DHT22;13304;48.464;8.712;2022-09-17T01:17:09;14.30;76.20
25352;DHT22;13304;48.464;8.712;2022-09-17T01:30:33;14.30;76.40
25352;DHT22;13304;48.464;8.712;2022-09-17T01:38:59;14.30;76.70
25352;DHT22;13304;48.464;8.712;2022-09-17T01:41:57;14.30;76.90
25352;DHT22;13304;48.464;8.712;2022-09-17T01:44:41;14.20;76.90
25352;DHT22;13304;48.464;8.712;2022-09-17T01:47:23;14.30;77.20
25352;DHT22;13304;48.464;8.712;2022-09-17T01:49:55;14.30;77.30
25352;DHT22;13304;48.464;8.712;2022-09-17T01:52:25;14.30;77.20
25352;DHT22;13304;48.464;8.712;2022-09-17T01:54:55;14.30;77.20
25352;DHT22;13304;48.464;8.712;2022-09-17T01:57:26;14.30;76.90
25352;DHT22;13304;48.464;8.712;2022-09-17T02:00:05;14.20;76.90
25352;DHT22;13304;48.464;8.712;2022-09-17T02:02:45;14.20;76.70
25352;DHT22;13304;48.464;8.712;2022-09-17T02:05:23;14.20;76.70
25352;DHT22;13304;48.464;8.712;2022-09-17T02:07:56;14.20;76.90
25352;DHT22;13304;48.464;8.712;2022-09-17T02:10:30;14.10;77.10
25352;DHT22;13304;48.464;8.712;2022-09-17T02:13:01;14.10;76.90
25352;DHT22;13304;48.464;8.712;2022-09-17T02:15:40;14.10;77.00
25352;DHT22;13304;48.464;8.712;2022-09-17T02:18:33;14.10;76.90
25352;DHT22;13304;48.464;8.712;2022-09-17T02:21:12;14.00;76.80
25352;DHT22;13304;48.464;8.712;2022-09-17T02:24:06;14.00;76.80
25352;DHT22;13304;48.464;8.712;2022-09-17T02:26:34;14.00;76.50
25352;DHT22;13304;48.464;8.712;2022-09-17T02:29:07;14.00;76.90
25352;DHT22;13304;48.464;8.712;2022-09-17T02:31:34;14.00;76.70
25352;DHT22;13304;48.464;8.712;2022-09-17T02:34:01;14.00;77.10
25352;DHT22;13304;48.464;8.712;2022-09-17T02:36:29;14.00;77.30
25352;DHT22;13304;48.464;8.712;2022-09-17T02:39:01;13.90;77.40
25352;DHT22;13304;48.464;8.712;2022-09-17T02:53:02;13.90;78.70
25352;DHT22;13304;48.464;8.712;2022-09-17T02:58:23;13.80;79.10
25352;DHT22;13304;48.464;8.712;2022-09-17T03:00:51;13.80;79.20
25352;DHT22;13304;48.464;8.712;2022-09-17T03:03:38;13.80;79.20
25352;DHT22;13304;48.464;8.712;2022-09-17T03:06:06;13.70;79.10
25352;DHT22;13304;48.464;8.712;2022-09-17T03:08:34;13.80;79.30
25352;DHT22;13304;48.464;8.712;2022-09-17T03:11:01;13.70;79.40
25352;DHT22;13304;48.464;8.712;2022-09-17T03:13:30;13.70;79.50
25352;DHT22;13304;48.464;8.712;2022-09-17T03:15:56;13.70;79.40
25352;DHT22;13304;48.464;8.712;2022-09-17T03:18:22;13.70;79.60
25352;DHT22;13304;48.464;8.712;2022-09-17T03:20:48;13.70;79.80
25352;DHT22;13304;48.464;8.712;2022-09-17T03:23:14;13.60;79.90
25352;DHT22;13304;48.464;8.712;2022-09-17T03:25:40;13.60;80.10
25352;DHT22;13304;48.464;8.712;2022-09-17T03:28:05;13.50;80.10
25352;DHT22;13304;48.464;8.712;2022-09-17T03:30:31;13.50;80.20
25352;DHT22;13304;48.464;8.712;2022-09-17T03:32:57;13.50;80.60
25352;DHT22;13304;48.464;8.712;2022-09-17T03:35:23;13.50;80.90
25352;DHT22;13304;48.464;8.712;2022-09-17T03:37:48;13.50;80.90
25352;DHT22;13304;48.464;8.712;2022-09-17T03:40:14;13.50;80.80
25352;DHT22;13304;48.464;8.712;2022-09-17T03:42:40;13.50;80.70
25352;DHT22;13304;48.464;8.712;2022-09-17T03:45:06;13.40;80.60
25352;DHT22;13304;48.464;8.712;2022-09-17T03:47:32;13.40;80.50
25352;DHT22;13304;48.464;8.712;2022-09-17T03:49:58;13.40;80.50
25352;DHT22;13304;48.464;8.712;2022-09-17T03:52:24;13.40;80.50
25352;DHT22;13304;48.464;8.712;2022-09-17T03:54:49;13.40;80.60
25352;DHT22;13304;48.464;8.712;2022-09-17T03:57:15;13.40;80.80
25352;DHT22;13304;48.464;8.712;2022-09-17T03:59:41;13.40;80.80
25352;DHT22;13304;48.464;8.712;2022-09-17T04:02:07;13.30;81.00
25352;DHT22;13304;48.464;8.712;2022-09-17T04:04:32;13.30;81.20
25352;DHT22;13304;48.464;8.712;2022-09-17T04:06:59;13.30;81.30
25352;DHT22;13304;48.464;8.712;2022-09-17T04:09:25;13.30;81.10
25352;DHT22;13304;48.464;8.712;2022-09-17T04:11:51;13.30;81.10
25352;DHT22;13304;48.464;8.712;2022-09-17T04:14:16;13.30;81.00
25352;DHT22;13304;48.464;8.712;2022-09-17T04:16:42;13.30;81.10
25352;DHT22;13304;48.464;8.712;2022-09-17T04:19:09;13.30;81.10
25352;DHT22;13304;48.464;8.712;2022-09-17T04:21:35;13.20;81.30
25352;DHT22;13304;48.464;8.712;2022-09-17T04:24:01;13.30;81.60
25352;DHT22;13304;48.464;8.712;2022-09-17T04:26:26;13.30;81.80
25352;DHT22;13304;48.464;8.712;2022-09-17T04:28:52;13.30;82.00
25352;DHT22;13304;48.464;8.712;2022-09-17T04:31:18;13.30;82.30
25352;DHT22;13304;48.464;8.712;2022-09-17T04:33:44;13.30;82.50
25352;DHT22;13304;48.464;8.712;2022-09-17T04:36:09;13.30;82.10
25352;DHT22;13304;48.464;8.712;2022-09-17T04:38:35;13.30;81.90
25352;DHT22;13304;48.464;8.712;2022-09-17T04:41:01;13.40;81.60
25352;DHT22;13304;48.464;8.712;2022-09-17T04:43:26;13.40;81.60
25352;DHT22;13304;48.464;8.712;2022-09-17T04:45:52;13.40;81.30
25352;DHT22;13304;48.464;8.712;2022-09-17T04:48:18;13.40;81.10
25352;DHT22;13304;48.464;8.712;2022-09-17T04:50:46;13.30;81.00
25352;DHT22;13304;48.464;8.712;2022-09-17T04:53:11;13.30;80.70
25352;DHT22;13304;48.464;8.712;2022-09-17T04:55:37;13.30;80.60
25352;DHT22;13304;48.464;8.712;2022-09-17T04:58:03;13.30;80.70
25352;DHT22;13304;48.464;8.712;2022-09-17T05:00:29;13.20;80.40
25352;DHT22;13304;48.464;8.712;2022-09-17T05:02:55;13.20;80.40
25352;DHT22;13304;48.464;8.712;2022-09-17T05:05:22;13.20;80.40
25352;DHT22;13304;48.464;8.712;2022-09-17T05:07:48;13.20;80.30
25352;DHT22;13304;48.464;8.712;2022-09-17T05:10:16;13.10;80.50
25352;DHT22;13304;48.464;8.712;2022-09-17T05:12:50;13.10;80.60
25352;DHT22;13304;48.464;8.712;2022-09-17T05:15:16;13.00;80.60
25352;DHT22;13304;48.464;8.712;2022-09-17T05:17:42;13.10;80.70
25352;DHT22;13304;48.464;8.712;2022-09-17T05:20:08;13.00;80.70
25352;DHT22;13304;48.464;8.712;2022-09-17T05:22:34;13.00;80.80
25352;DHT22;13304;48.464;8.712;2022-09-17T05:25:00;13.00;80.90
25352;DHT22;13304;48.464;8.712;2022-09-17T05:27:26;13.00;80.90
25352;DHT22;13304;48.464;8.712;2022-09-17T05:29:51;12.90;81.10
25352;DHT22;13304;48.464;8.712;2022-09-17T05:32:17;12.90;81.10
25352;DHT22;13304;48.464;8.712;2022-09-17T05:34:44;12.90;81.20
25352;DHT22;13304;48.464;8.712;2022-09-17T05:37:10;12.90;81.10
25352;DHT22;13304;48.464;8.712;2022-09-17T05:39:35;12.90;81.00
25352;DHT22;13304;48.464;8.712;2022-09-17T05:42:01;12.90;81.00
25352;DHT22;13304;48.464;8.712;2022-09-17T05:44:27;12.80;81.10
25352;DHT22;13304;48.464;8.712;2022-09-17T05:46:53;12.80;81.40
25352;DHT22;13304;48.464;8.712;2022-09-17T05:49:19;12.80;81.80
25352;DHT22;13304;48.464;8.712;2022-09-17T05:51:45;12.80;82.10
25352;DHT22;13304;48.464;8.712;2022-09-17T05:54:11;12.90;82.20
25352;DHT22;13304;48.464;8.712;2022-09-17T05:56:37;12.90;82.20
25352;DHT22;13304;48.464;8.712;2022-09-17T05:59:03;12.90;81.90
25352;DHT22;13304;48.464;8.712;2022-09-17T06:01:29;12.90;81.80
25352;DHT22;13304;48.464;8.712;2022-09-17T06:03:54;12.90;81.90
25352;DHT22;13304;48.464;8.712;2022-09-17T06:06:20;12.90;81.80
25352;DHT22;13304;48.464;8.712;2022-09-17T06:08:46;12.90;81.80
25352;DHT22;13304;48.464;8.712;2022-09-17T06:11:14;13.00;81.50
25352;DHT22;13304;48.464;8.712;2022-09-17T06:13:40;13.00;81.20
25352;DHT22;13304;48.464;8.712;2022-09-17T06:16:07;13.00;81.40
25352;DHT22;13304;48.464;8.712;2022-09-17T06:18:33;13.00;81.30
25352;DHT22;13304;48.464;8.712;2022-09-17T06:21:01;13.00;81.10
25352;DHT22;13304;48.464;8.712;2022-09-17T06:23:31;13.00;81.10
25352;DHT22;13304;48.464;8.712;2022-09-17T06:25:59;13.00;81.20
25352;DHT22;13304;48.464;8.712;2022-09-17T06:28:26;13.10;81.50
25352;DHT22;13304;48.464;8.712;2022-09-17T06:30:53;13.10;81.50
25352;DHT22;13304;48.464;8.712;2022-09-17T06:33:21;13.10;80.80
25352;DHT22;13304;48.464;8.712;2022-09-17T06:35:47;13.20;80.60
25352;DHT22;13304;48.464;8.712;2022-09-17T06:38:13;13.20;80.40
25352;DHT22;13304;48.464;8.712;2022-09-17T06:40:39;13.20;80.10
25352;DHT22;13304;48.464;8.712;2022-09-17T06:43:04;13.10;80.20
25352;DHT22;13304;48.464;8.712;2022-09-17T06:45:30;13.20;80.20
25352;DHT22;13304;48.464;8.712;2022-09-17T06:47:56;13.20;80.40
25352;DHT22;13304;48.464;8.712;2022-09-17T06:50:23;13.20;80.40
25352;DHT22;13304;48.464;8.712;2022-09-17T06:52:53;13.20;80.00
25352;DHT22;13304;48.464;8.712;2022-09-17T06:55:20;13.30;79.40
25352;DHT22;13304;48.464;8.712;2022-09-17T06:57:46;13.30;79.50
25352;DHT22;13304;48.464;8.712;2022-09-17T07:00:13;13.30;78.90
25352;DHT22;13304;48.464;8.712;2022-09-17T07:02:39;13.30;78.70
25352;DHT22;13304;48.464;8.712;2022-09-17T07:05:05;13.30;78.80
25352;DHT22;13304;48.464;8.712;2022-09-17T07:07:31;13.30;78.70
25352;DHT22;13304;48.464;8.712;2022-09-17T07:10:00;13.30;78.70
25352;DHT22;13304;48.464;8.712;2022-09-17T07:12:26;13.40;78.30
25352;DHT22;13304;48.464;8.712;2022-09-17T07:14:52;13.40;77.70
25352;DHT22;13304;48.464;8.712;2022-09-17T07:17:18;13.40;77.90
25352;DHT22;13304;48.464;8.712;2022-09-17T07:19:43;13.40;78.30
25352;DHT22;13304;48.464;8.712;2022-09-17T07:22:09;13.50;78.60
25352;DHT22;13304;48.464;8.712;2022-09-17T07:24:35;13.50;78.10
25352;DHT22;13304;48.464;8.712;2022-09-17T07:27:00;13.50;77.80
25352;DHT22;13304;48.464;8.712;2022-09-17T07:29:26;13.50;77.70
25352;DHT22;13304;48.464;8.712;2022-09-17T07:31:55;13.50;77.20
25352;DHT22;13304;48.464;8.712;2022-09-17T07:34:22;13.50;77.40
25352;DHT22;13304;48.464;8.712;2022-09-17T07:36:48;13.50;78.10
25352;DHT22;13304;48.464;8.712;2022-09-17T07:39:14;13.50;78.70
25352;DHT22;13304;48.464;8.712;2022-09-17T07:41:39;13.50;78.70
25352;DHT22;13304;48.464;8.712;2022-09-17T07:44:06;13.50;78.80
25352;DHT22;13304;48.464;8.712;2022-09-17T07:46:34;13.40;78.50
25352;DHT22;13304;48.464;8.712;2022-09-17T07:49:00;13.40;78.60
25352;DHT22;13304;48.464;8.712;2022-09-17T07:51:26;13.40;79.60
25352;DHT22;13304;48.464;8.712;2022-09-17T07:53:55;13.40;79.90
25352;DHT22;13304;48.464;8.712;2022-09-17T07:56:23;13.30;78.80
25352;DHT22;13304;48.464;8.712;2022-09-17T07:58:49;13.30;79.50
25352;DHT22;13304;48.464;8.712;2022-09-17T08:01:15;13.40;79.70
25352;DHT22;13304;48.464;8.712;2022-09-17T08:03:42;13.30;80.30
25352;DHT22;13304;48.464;8.712;2022-09-17T08:06:13;13.30;80.80
25352;DHT22;13304;48.464;8.712;2022-09-17T08:08:40;13.30;81.10
25352;DHT22;13304;48.464;8.712;2022-09-17T08:11:07;13.30;81.70
25352;DHT22;13304;48.464;8.712;2022-09-17T08:13:33;13.30;82.10
25352;DHT22;13304;48.464;8.712;2022-09-17T08:16:04;13.30;82.20
25352;DHT22;13304;48.464;8.712;2022-09-17T08:18:31;13.30;82.10
25352;DHT22;13304;48.464;8.712;2022-09-17T08:21:02;13.30;82.50
25352;DHT22;13304;48.464;8.712;2022-09-17T08:23:29;13.30;82.60
25352;DHT22;13304;48.464;8.712;2022-09-17T08:25:57;13.30;83.10
25352;DHT22;13304;48.464;8.712;2022-09-17T08:28:24;13.30;83.50
25352;DHT22;13304;48.464;8.712;2022-09-17T08:30:51;13.40;83.50
25352;DHT22;13304;48.464;8.712;2022-09-17T08:33:17;13.40;83.00
25352;DHT22;13304;48.464;8.712;2022-09-17T08:35:53;13.40;83.10
25352;DHT22;13304;48.464;8.712;2022-09-17T08:38:19;13.40;82.10
25352;DHT22;13304;48.464;8.712;2022-09-17T08:46:50;13.50;83.40
25352;DHT22;13304;48.464;8.712;2022-09-17T08:49:35;13.50;81.60
25352;DHT22;13304;48.464;8.712;2022-09-17T09:00:30;13.70;79.00
25352;DHT22;13304;48.464;8.712;2022-09-17T09:05:52;13.80;78.60
25352;DHT22;13304;48.464;8.712;2022-09-17T09:08:21;13.80;77.80
25352;DHT22;13304;48.464;8.712;2022-09-17T09:10:55;13.90;78.90
25352;DHT22;13304;48.464;8.712;2022-09-17T09:13:25;13.90;78.10
25352;DHT22;13304;48.464;8.712;2022-09-17T09:15:59;14.00;79.30
25352;DHT22;13304;48.464;8.712;2022-09-17T09:18:29;14.00;79.10
25352;DHT22;13304;48.464;8.712;2022-09-17T09:26:41;14.20;76.80
25352;DHT22;13304;48.464;8.712;2022-09-17T09:34:26;14.40;76.90
25352;DHT22;13304;48.464;8.712;2022-09-17T09:37:09;14.50;77.50
25352;DHT22;13304;48.464;8.712;2022-09-17T09:39:37;14.50;76.90
25352;DHT22;13304;48.464;8.712;2022-09-17T09:42:13;14.50;76.90
25352;DHT22;13304;48.464;8.712;2022-09-17T09:44:40;14.50;76.50
25352;DHT22;13304;48.464;8.712;2022-09-17T09:47:28;14.60;75.40
25352;DHT22;13304;48.464;8.712;2022-09-17T09:50:17;14.60;73.90
25352;DHT22;13304;48.464;8.712;2022-09-17T09:58:37;14.60;74.20
25352;DHT22;13304;48.464;8.712;2022-09-17T10:01:15;14.70;74.90
25352;DHT22;13304;48.464;8.712;2022-09-17T10:03:42;14.70;73.40
25352;DHT22;13304;48.464;8.712;2022-09-17T10:06:11;14.70;74.10
25352;DHT22;13304;48.464;8.712;2022-09-17T10:11:30;14.70;72.70
25352;DHT22;13304;48.464;8.712;2022-09-17T10:14:22;14.70;72.70
25352;DHT22;13304;48.464;8.712;2022-09-17T10:17:15;14.80;72.60
25352;DHT22;13304;48.464;8.712;2022-09-17T10:19:42;14.90;72.00
25352;DHT22;13304;48.464;8.712;2022-09-17T10:22:30;14.90;73.70
25352;DHT22;13304;48.464;8.712;2022-09-17T10:24:58;14.90;72.50
25352;DHT22;13304;48.464;8.712;2022-09-17T10:27:25;14.80;71.00
25352;DHT22;13304;48.464;8.712;2022-09-17T10:32:27;14.90;71.70
25352;DHT22;13304;48.464;8.712;2022-09-17T10:37:42;14.90;70.90
25352;DHT22;13304;48.464;8.712;2022-09-17T10:42:46;14.80;71.60
25352;DHT22;13304;48.464;8.712;2022-09-17T10:47:48;14.80;71.70
25352;DHT22;13304;48.464;8.712;2022-09-17T10:50:19;14.80;73.00
25352;DHT22;13304;48.464;8.712;2022-09-17T10:52:53;14.90;72.70
25352;DHT22;13304;48.464;8.712;2022-09-17T10:55:32;14.90;71.70
25352;DHT22;13304;48.464;8.712;2022-09-17T11:25:46;15.50;69.90
25352;DHT22;13304;48.464;8.712;2022-09-17T11:34:09;15.60;70.00
25352;DHT22;13304;48.464;8.712;2022-09-17T11:36:53;15.50;69.40
25352;DHT22;13304;48.464;8.712;2022-09-17T11:39:52;15.50;68.20
25352;DHT22;13304;48.464;8.712;2022-09-17T11:45:32;15.30;67.60
25352;DHT22;13304;48.464;8.712;2022-09-17T11:48:12;15.40;69.70
25352;DHT22;13304;48.464;8.712;2022-09-17T11:50:43;15.30;70.80
25352;DHT22;13304;48.464;8.712;2022-09-17T11:53:25;15.40;71.70
25352;DHT22;13304;48.464;8.712;2022-09-17T11:58:45;15.30;70.60
25352;DHT22;13304;48.464;8.712;2022-09-17T12:06:45;15.30;69.90
25352;DHT22;13304;48.464;8.712;2022-09-17T12:09:19;15.30;67.80
25352;DHT22;13304;48.464;8.712;2022-09-17T12:11:54;15.30;69.40
25352;DHT22;13304;48.464;8.712;2022-09-17T12:14:50;15.40;68.80
25352;DHT22;13304;48.464;8.712;2022-09-17T12:17:37;15.50;68.60
25352;DHT22;13304;48.464;8.712;2022-09-17T12:20:12;15.60;69.60
25352;DHT22;13304;48.464;8.712;2022-09-17T12:22:43;15.70;67.70
25352;DHT22;13304;48.464;8.712;2022-09-17T12:25:13;15.80;66.20
25352;DHT22;13304;48.464;8.712;2022-09-17T12:30:39;15.80;65.00
25352;DHT22;13304;48.464;8.712;2022-09-17T12:33:25;15.80;66.60
25352;DHT22;13304;48.464;8.712;2022-09-17T12:50:24;15.90;64.90
25352;DHT22;13304;48.464;8.712;2022-09-17T12:53:01;15.90;65.80
25352;DHT22;13304;48.464;8.712;2022-09-17T13:09:34;15.80;65.80
25352;DHT22;13304;48.464;8.712;2022-09-17T13:22:46;15.40;66.40
25352;DHT22;13304;48.464;8.712;2022-09-17T13:25:15;15.40;68.70
25352;DHT22;13304;48.464;8.712;2022-09-17T13:27:41;15.30;70.20
25352;DHT22;13304;48.464;8.712;2022-09-17T13:30:10;15.20;70.90
25352;DHT22;13304;48.464;8.712;2022-09-17T13:40:28;14.90;73.70
25352;DHT22;13304;48.464;8.712;2022-09-17T13:42:55;14.70;75.00
25352;DHT22;13304;48.464;8.712;2022-09-17T13:45:23;14.70;75.80
25352;DHT22;13304;48.464;8.712;2022-09-17T13:47:51;14.70;77.00
25352;DHT22;13304;48.464;8.712;2022-09-17T13:50:30;14.60;78.00
25352;DHT22;13304;48.464;8.712;2022-09-17T13:52:58;14.50;78.50
25352;DHT22;13304;48.464;8.712;2022-09-17T13:55:37;14.60;78.90
25352;DHT22;13304;48.464;8.712;2022-09-17T13:58:10;14.50;78.90
25352;DHT22;13304;48.464;8.712;2022-09-17T14:22:24;14.50;77.70
25352;DHT22;13304;48.464;8.712;2022-09-17T14:24:52;14.60;78.10
25352;DHT22;13304;48.464;8.712;2022-09-17T14:30:18;14.60;77.00
25352;DHT22;13304;48.464;8.712;2022-09-17T14:38:14;14.60;75.80
25352;DHT22;13304;48.464;8.712;2022-09-17T14:40:48;14.60;76.80
25352;DHT22;13304;48.464;8.712;2022-09-17T14:46:02;14.70;77.60
25352;DHT22;13304;48.464;8.712;2022-09-17T14:48:33;14.70;78.10
25352;DHT22;13304;48.464;8.712;2022-09-17T14:54:08;14.80;78.10
25352;DHT22;13304;48.464;8.712;2022-09-17T14:59:27;14.90;78.50
25352;DHT22;13304;48.464;8.712;2022-09-17T15:01:53;15.00;78.10
25352;DHT22;13304;48.464;8.712;2022-09-17T15:04:21;15.10;78.30
25352;DHT22;13304;48.464;8.712;2022-09-17T15:06:47;15.10;78.60
25352;DHT22;13304;48.464;8.712;2022-09-17T15:09:32;15.10;78.20
25352;DHT22;13304;48.464;8.712;2022-09-17T15:11:59;15.00;76.00
25352;DHT22;13304;48.464;8.712;2022-09-17T15:14:30;15.10;77.10
25352;DHT22;13304;48.464;8.712;2022-09-17T15:16:58;15.10;77.00
25352;DHT22;13304;48.464;8.712;2022-09-17T15:19:33;15.20;77.60
25352;DHT22;13304;48.464;8.712;2022-09-17T15:22:26;15.20;77.00
25352;DHT22;13304;48.464;8.712;2022-09-17T15:24:59;15.10;76.10
25352;DHT22;13304;48.464;8.712;2022-09-17T15:27:35;15.20;76.20
25352;DHT22;13304;48.464;8.712;2022-09-17T15:30:16;15.20;76.40
25352;DHT22;13304;48.464;8.712;2022-09-17T15:32:52;15.20;75.80
25352;DHT22;13304;48.464;8.712;2022-09-17T15:37:49;15.20;74.50
25352;DHT22;13304;48.464;8.712;2022-09-17T15:45:33;15.00;73.10
25352;DHT22;13304;48.464;8.712;2022-09-17T15:48:04;15.00;74.30
25352;DHT22;13304;48.464;8.712;2022-09-17T15:50:32;15.00;75.00
25352;DHT22;13304;48.464;8.712;2022-09-17T16:08:51;15.50;77.40
25352;DHT22;13304;48.464;8.712;2022-09-17T16:11:20;15.80;77.00
25352;DHT22;13304;48.464;8.712;2022-09-17T16:13:47;15.90;74.60
25352;DHT22;13304;48.464;8.712;2022-09-17T16:16:21;15.90;72.90
25352;DHT22;13304;48.464;8.712;2022-09-17T16:18:48;15.90;72.20
25352;DHT22;13304;48.464;8.712;2022-09-17T16:21:15;15.90;72.50
25352;DHT22;13304;48.464;8.712;2022-09-17T16:23:41;15.90;72.60
25352;DHT22;13304;48.464;8.712;2022-09-17T16:26:14;15.80;72.30
25352;DHT22;13304;48.464;8.712;2022-09-17T16:28:41;15.70;72.20
25352;DHT22;13304;48.464;8.712;2022-09-17T16:31:10;15.60;73.00
25352;DHT22;13304;48.464;8.712;2022-09-17T16:33:37;15.50;72.90
25352;DHT22;13304;48.464;8.712;2022-09-17T16:36:03;15.50;73.10
25352;DHT22;13304;48.464;8.712;2022-09-17T16:38:29;15.40;73.50
25352;DHT22;13304;48.464;8.712;2022-09-17T16:40:55;15.30;73.90
25352;DHT22;13304;48.464;8.712;2022-09-17T16:43:21;15.20;74.40
25352;DHT22;13304;48.464;8.712;2022-09-17T16:46:03;15.20;74.80
25352;DHT22;13304;48.464;8.712;2022-09-17T16:48:30;15.10;74.50
25352;DHT22;13304;48.464;8.712;2022-09-17T16:50:56;15.10;75.40
25352;DHT22;13304;48.464;8.712;2022-09-17T16:53:21;15.00;75.80
25352;DHT22;13304;48.464;8.712;2022-09-17T16:55:48;14.90;76.10
25352;DHT22;13304;48.464;8.712;2022-09-17T16:58:14;14.90;76.50
25352;DHT22;13304;48.464;8.712;2022-09-17T17:00:43;14.90;76.70
25352;DHT22;13304;48.464;8.712;2022-09-17T17:03:12;14.80;77.00
25352;DHT22;13304;48.464;8.712;2022-09-17T17:05:39;14.80;77.40
25352;DHT22;13304;48.464;8.712;2022-09-17T17:08:06;14.80;77.60
25352;DHT22;13304;48.464;8.712;2022-09-17T17:10:32;14.70;77.60
25352;DHT22;13304;48.464;8.712;2022-09-17T17:12:58;14.70;77.70
25352;DHT22;13304;48.464;8.712;2022-09-17T17:15:24;14.70;77.50
25352;DHT22;13304;48.464;8.712;2022-09-17T17:17:50;14.60;77.40
25352;DHT22;13304;48.464;8.712;2022-09-17T17:20:16;14.60;77.60
25352;DHT22;13304;48.464;8.712;2022-09-17T17:22:42;14.60;77.80
25352;DHT22;13304;48.464;8.712;2022-09-17T17:25:09;14.50;77.80
25352;DHT22;13304;48.464;8.712;2022-09-17T17:27:35;14.40;76.90
25352;DHT22;13304;48.464;8.712;2022-09-17T17:30:04;14.40;77.30
25352;DHT22;13304;48.464;8.712;2022-09-17T17:32:35;14.30;77.30
25352;DHT22;13304;48.464;8.712;2022-09-17T17:35:01;14.30;77.60
25352;DHT22;13304;48.464;8.712;2022-09-17T17:37:28;14.20;77.60
25352;DHT22;13304;48.464;8.712;2022-09-17T17:39:53;14.20;78.00
25352;DHT22;13304;48.464;8.712;2022-09-17T17:42:20;14.20;78.30
25352;DHT22;13304;48.464;8.712;2022-09-17T17:44:46;14.10;78.20
25352;DHT22;13304;48.464;8.712;2022-09-17T17:47:14;14.10;78.40
25352;DHT22;13304;48.464;8.712;2022-09-17T17:49:40;14.00;78.10
25352;DHT22;13304;48.464;8.712;2022-09-17T17:52:06;14.00;78.00
25352;DHT22;13304;48.464;8.712;2022-09-17T17:54:31;14.00;77.90
25352;DHT22;13304;48.464;8.712;2022-09-17T17:56:57;14.00;78.10
25352;DHT22;13304;48.464;8.712;2022-09-17T17:59:23;13.90;78.20
25352;DHT22;13304;48.464;8.712;2022-09-17T18:01:49;13.90;78.40
25352;DHT22;13304;48.464;8.712;2022-09-17T18:04:15;13.90;78.60
25352;DHT22;13304;48.464;8.712;2022-09-17T18:06:40;13.90;78.80
25352;DHT22;13304;48.464;8.712;2022-09-17T18:09:07;13.90;78.90
25352;DHT22;13304;48.464;8.712;2022-09-17T18:11:33;13.90;78.80
25352;DHT22;13304;48.464;8.712;2022-09-17T18:14:02;13.80;78.90
25352;DHT22;13304;48.464;8.712;2022-09-17T18:16:29;13.80;78.50
25352;DHT22;13304;48.464;8.712;2022-09-17T18:18:56;13.80;79.60
25352;DHT22;13304;48.464;8.712;2022-09-17T18:21:23;13.80;78.80
25352;DHT22;13304;48.464;8.712;2022-09-17T18:23:50;13.80;79.00
25352;DHT22;13304;48.464;8.712;2022-09-17T18:26:18;13.80;78.60
25352;DHT22;13304;48.464;8.712;2022-09-17T18:28:44;13.80;78.20
25352;DHT22;13304;48.464;8.712;2022-09-17T18:31:20;13.80;78.50
25352;DHT22;13304;48.464;8.712;2022-09-17T18:33:48;13.80;77.60
25352;DHT22;13304;48.464;8.712;2022-09-17T18:36:13;13.80;78.10
25352;DHT22;13304;48.464;8.712;2022-09-17T18:38:39;13.80;77.80
25352;DHT22;13304;48.464;8.712;2022-09-17T18:41:06;13.80;77.70
25352;DHT22;13304;48.464;8.712;2022-09-17T18:43:33;13.80;77.60
25352;DHT22;13304;48.464;8.712;2022-09-17T18:45:59;13.80;77.60
25352;DHT22;13304;48.464;8.712;2022-09-17T18:48:26;13.80;77.50
25352;DHT22;13304;48.464;8.712;2022-09-17T18:51:03;13.80;77.50
25352;DHT22;13304;48.464;8.712;2022-09-17T18:53:31;13.80;77.30
25352;DHT22;13304;48.464;8.712;2022-09-17T18:56:09;13.80;77.80
25352;DHT22;13304;48.464;8.712;2022-09-17T18:58:36;13.80;77.30
25352;DHT22;13304;48.464;8.712;2022-09-17T19:01:06;13.80;77.90
25352;DHT22;13304;48.464;8.712;2022-09-17T19:03:32;13.80;77.40
25352;DHT22;13304;48.464;8.712;2022-09-17T19:05:59;13.80;77.70
25352;DHT22;13304;48.464;8.712;2022-09-17T19:08:24;13.80;77.70
25352;DHT22;13304;48.464;8.712;2022-09-17T19:10:50;13.80;77.90
25352;DHT22;13304;48.464;8.712;2022-09-17T19:13:17;13.70;78.00
25352;DHT22;13304;48.464;8.712;2022-09-17T19:15:43;13.70;78.20
25352;DHT22;13304;48.464;8.712;2022-09-17T19:18:09;13.70;78.40
25352;DHT22;13304;48.464;8.712;2022-09-17T19:20:34;13.60;78.50
25352;DHT22;13304;48.464;8.712;2022-09-17T19:23:03;13.60;78.70
25352;DHT22;13304;48.464;8.712;2022-09-17T19:25:29;13.60;79.00
25352;DHT22;13304;48.464;8.712;2022-09-17T19:27:55;13.60;79.30
25352;DHT22;13304;48.464;8.712;2022-09-17T19:30:22;13.60;79.60
25352;DHT22;13304;48.464;8.712;2022-09-17T19:32:47;13.60;79.70
25352;DHT22;13304;48.464;8.712;2022-09-17T19:35:14;13.60;79.40
25352;DHT22;13304;48.464;8.712;2022-09-17T19:37:40;13.60;78.60
25352;DHT22;13304;48.464;8.712;2022-09-17T19:40:07;13.70;79.30
25352;DHT22;13304;48.464;8.712;2022-09-17T19:42:33;13.70;79.00
25352;DHT22;13304;48.464;8.712;2022-09-17T19:44:59;13.60;78.80